Time;durP1;ratioP1;P1;durP2;ratioP2;P2;SDS_P1;SDS_P2;PMS_P1;PMS_P2;Temp;Humidity;BMP_temperature;BMP_pressure;BME280_temperature;BME280_humidity;BME280_pressure;Samples;Min_cycle;Max_cycle;Signal;HPM_P1;HPM_P2
2023/04/02 00:01:47;;;;;;;15.27;10.10;;;8.00;99.90;;;;;;4932557;28;39212;-77
2023/04/02 00:04:22;;;;;;;15.48;11.13;;;8.00;99.90;;;;;;4945912;28;38552;-77
2023/04/02 00:07:29;;;;;;;15.07;11.13;;;8.00;99.90;;;;;;4944974;28;38269;-77
2023/04/02 00:09:56;;;;;;;18.20;11.57;;;8.00;99.90;;;;;;4930012;28;47301;-77
2023/04/02 00:12:23;;;;;;;18.33;11.47;;;8.00;99.90;;;;;;4933008;28;37440;-77
2023/04/02 00:14:53;;;;;;;18.70;12.10;;;7.90;99.90;;;;;;4930162;28;36248;-77
2023/04/02 00:17:23;;;;;;;15.77;12.13;;;7.90;99.90;;;;;;4937292;28;38255;-77
2023/04/02 00:20:05;;;;;;;17.33;11.93;;;7.90;99.90;;;;;;4929762;28;36365;-77
2023/04/02 00:22:32;;;;;;;17.25;12.52;;;7.90;99.90;;;;;;4929939;28;46984;-77
2023/04/02 00:25:02;;;;;;;19.13;12.20;;;7.90;99.90;;;;;;4948068;28;38680;-77
2023/04/02 00:27:29;;;;;;;20.77;12.97;;;7.80;99.90;;;;;;4938325;28;37389;-77
2023/04/02 00:29:57;;;;;;;20.87;13.03;;;7.80;99.90;;;;;;4951194;28;37475;-77
2023/04/02 00:32:27;;;;;;;19.67;13.40;;;7.80;99.90;;;;;;4933552;28;37766;-77
2023/04/02 00:34:54;;;;;;;19.53;12.63;;;7.80;99.90;;;;;;4936554;28;37365;-77
2023/04/02 00:37:26;;;;;;;18.90;12.20;;;7.80;99.90;;;;;;4946865;28;37071;-77
2023/04/02 00:40:06;;;;;;;20.00;12.48;;;7.80;99.90;;;;;;4960582;28;37331;-77
2023/04/02 00:42:34;;;;;;;18.67;12.43;;;7.70;99.90;;;;;;4941624;28;49022;-77
2023/04/02 00:45:01;;;;;;;20.67;11.70;;;7.70;99.90;;;;;;4940138;28;38255;-76
2023/04/02 00:47:34;;;;;;;17.37;11.53;;;7.70;99.90;;;;;;4939591;28;37442;-77
2023/04/02 00:50:14;;;;;;;20.52;11.95;;;7.70;99.90;;;;;;4957504;28;37340;-77
2023/04/02 00:52:44;;;;;;;21.10;12.83;;;7.70;99.90;;;;;;4937084;28;47235;-77
2023/04/02 00:55:21;;;;;;;21.67;13.80;;;7.60;99.90;;;;;;4937045;28;38097;-77
2023/04/02 00:57:49;;;;;;;19.20;11.97;;;7.60;99.90;;;;;;4935368;28;38428;-76
2023/04/02 01:03:15;;;;;;;18.70;12.33;;;7.60;99.90;;;;;;5377139;23;49241;-78
2023/04/02 01:06:11;;;;;;;21.60;13.23;;;7.50;99.90;;;;;;4927471;28;47157;-81
2023/04/02 01:08:58;;;;;;;20.47;12.37;;;7.50;99.90;;;;;;4916828;28;47416;-78
2023/04/02 01:11:30;;;;;;;18.87;12.70;;;7.50;99.90;;;;;;4893601;29;36651;-78
2023/04/02 01:14:36;;;;;;;22.58;13.30;;;7.50;99.90;;;;;;4929490;28;39786;-78
2023/04/02 01:17:18;;;;;;;13.87;10.63;;;7.50;99.90;;;;;;4910586;28;47391;-78
2023/04/02 01:19:51;;;;;;;21.52;12.90;;;7.50;99.90;;;;;;4904705;28;36947;-78
2023/04/02 01:22:20;;;;;;;18.13;11.93;;;7.50;99.90;;;;;;4903141;29;37980;-78
2023/04/02 01:24:47;;;;;;;19.60;11.83;;;7.50;99.90;;;;;;4902643;29;37796;-78
2023/04/02 01:27:38;;;;;;;19.37;12.73;;;7.40;99.90;;;;;;4902375;29;38282;-78
2023/04/02 01:30:06;;;;;;;15.27;10.93;;;7.40;99.90;;;;;;4927037;28;39068;-78
2023/04/02 01:32:33;;;;;;;17.67;11.47;;;7.40;99.90;;;;;;4925055;28;36830;-78
2023/04/02 01:35:00;;;;;;;15.77;11.10;;;7.40;99.90;;;;;;4925615;28;39062;-78
2023/04/02 01:37:35;;;;;;;14.73;10.37;;;7.40;99.90;;;;;;4906218;29;37750;-78
2023/04/02 01:40:25;;;;;;;19.10;11.43;;;7.40;99.90;;;;;;4903854;29;38550;-78
2023/04/02 01:43:29;;;;;;;14.53;10.73;;;7.40;99.90;;;;;;4925226;28;47666;-78
2023/04/02 01:45:57;;;;;;;15.75;10.73;;;7.40;99.90;;;;;;4932560;28;47035;-78
2023/04/02 01:48:28;;;;;;;19.17;11.30;;;7.40;99.90;;;;;;4911910;29;37459;-78
2023/04/02 01:50:58;;;;;;;16.87;11.67;;;7.30;99.90;;;;;;4934207;28;37009;-78
2023/04/02 01:53:28;;;;;;;17.53;10.93;;;7.30;99.90;;;;;;4913790;29;36514;-77
2023/04/02 01:55:58;;;;;;;15.07;10.20;;;7.30;99.90;;;;;;4910110;28;39886;-77
2023/04/02 01:58:30;;;;;;;19.23;10.70;;;7.30;99.90;;;;;;4921277;29;37763;-77
2023/04/02 02:01:05;;;;;;;14.95;10.40;;;7.30;99.90;;;;;;4917407;29;36910;-77
2023/04/02 02:03:33;;;;;;;15.33;9.77;;;7.30;99.90;;;;;;4936795;28;47367;-77
2023/04/02 02:06:00;;;;;;;16.33;10.07;;;7.30;99.90;;;;;;4928349;28;37682;-76
2023/04/02 02:08:36;;;;;;;14.93;10.13;;;7.30;99.90;;;;;;4939019;28;38169;-76
2023/04/02 02:11:03;;;;;;;13.50;9.93;;;7.30;99.90;;;;;;4904786;28;37866;-76
2023/04/02 02:13:31;;;;;;;17.17;9.47;;;7.20;99.90;;;;;;4922547;28;36389;-77
2023/04/02 02:15:58;;;;;;;15.93;9.80;;;7.20;99.90;;;;;;4930277;28;39224;-76
2023/04/02 02:18:26;;;;;;;13.10;9.03;;;7.20;99.90;;;;;;4922270;29;37964;-76
2023/04/02 02:20:54;;;;;;;16.07;9.83;;;7.20;99.90;;;;;;4934464;28;37992;-76
2023/04/02 02:23:21;;;;;;;15.73;9.77;;;7.10;99.90;;;;;;4924375;28;35877;-76
2023/04/02 02:25:48;;;;;;;17.23;10.60;;;7.20;99.90;;;;;;4925767;28;37623;-76
2023/04/02 02:28:28;;;;;;;18.47;10.97;;;7.10;99.90;;;;;;4926065;29;38565;-76
2023/04/02 02:30:58;;;;;;;14.93;9.83;;;7.10;99.90;;;;;;4928297;28;38718;-76
2023/04/02 02:33:26;;;;;;;13.80;9.20;;;7.10;99.90;;;;;;4919914;28;37252;-76
2023/04/02 02:36:21;;;;;;;14.50;10.07;;;7.20;99.90;;;;;;4934854;28;37871;-75
2023/04/02 02:38:54;;;;;;;17.33;9.10;;;7.10;99.90;;;;;;4917588;29;47179;-76
2023/04/02 02:41:27;;;;;;;16.73;9.57;;;7.10;99.90;;;;;;4932998;28;37119;-76
2023/04/02 02:44:08;;;;;;;18.87;9.77;;;7.10;99.90;;;;;;4928037;28;37129;-76
2023/04/02 02:46:39;;;;;;;12.37;8.87;;;7.00;99.90;;;;;;4934698;28;48709;-76
2023/04/02 02:49:08;;;;;;;14.87;9.37;;;7.00;99.90;;;;;;4921346;28;39143;-76
2023/04/02 02:51:44;;;;;;;13.60;8.63;;;7.10;99.90;;;;;;4940541;28;37747;-76
2023/04/02 02:54:10;;;;;;;11.53;8.63;;;7.00;99.90;;;;;;4913037;29;36373;-76
2023/04/02 02:56:44;;;;;;;16.23;8.90;;;7.00;99.90;;;;;;4929851;28;38695;-76
2023/04/02 02:59:13;;;;;;;13.30;8.63;;;7.00;99.90;;;;;;4911062;29;38601;-76
2023/04/02 03:01:41;;;;;;;11.33;8.00;;;7.00;99.90;;;;;;4938987;28;38610;-76
2023/04/02 03:04:07;;;;;;;11.10;7.83;;;6.90;99.90;;;;;;4940061;28;37341;-76
2023/04/02 03:06:35;;;;;;;13.40;7.63;;;6.90;99.90;;;;;;4931912;28;38967;-76
2023/04/02 03:09:32;;;;;;;11.47;7.73;;;6.90;99.90;;;;;;4936007;28;38603;-76
2023/04/02 03:12:05;;;;;;;10.70;7.77;;;6.80;99.90;;;;;;4927976;28;48825;-76
2023/04/02 03:14:52;;;;;;;10.60;7.67;;;6.70;99.90;;;;;;4914132;28;47328;-76
2023/04/02 03:17:26;;;;;;;13.73;8.37;;;6.80;99.90;;;;;;4914769;29;37524;-75
2023/04/02 03:20:05;;;;;;;12.80;9.10;;;6.80;99.90;;;;;;4910678;29;38307;-76
2023/04/02 03:22:42;;;;;;;12.30;8.30;;;6.70;99.90;;;;;;4911763;29;46691;-76
2023/04/02 03:25:28;;;;;;;12.60;8.27;;;6.70;99.90;;;;;;4933501;28;37283;-76
2023/04/02 03:28:01;;;;;;;10.90;8.53;;;6.80;99.90;;;;;;4911316;28;40663;-75
2023/04/02 03:30:47;;;;;;;11.13;8.27;;;6.70;99.90;;;;;;4916347;29;47321;-76
2023/04/02 03:33:24;;;;;;;15.57;9.23;;;6.80;99.90;;;;;;4909555;28;38586;-75
2023/04/02 03:36:20;;;;;;;12.33;8.80;;;6.80;99.90;;;;;;4921630;29;37741;-75
2023/04/02 03:38:51;;;;;;;11.17;7.77;;;6.80;99.90;;;;;;4913115;28;47043;-76
2023/04/02 03:41:40;;;;;;;11.70;8.27;;;6.70;99.90;;;;;;4937002;28;38049;-76
2023/04/02 03:44:18;;;;;;;13.00;8.17;;;6.60;99.90;;;;;;4916185;29;38288;-76
2023/04/02 03:46:50;;;;;;;15.87;8.57;;;6.50;99.90;;;;;;4936964;28;37926;-76
2023/04/02 03:49:28;;;;;;;14.93;8.93;;;6.50;99.90;;;;;;4918402;28;39258;-76
2023/04/02 03:52:04;;;;;;;13.80;8.33;;;6.60;99.90;;;;;;4925465;28;38758;-75
2023/04/02 03:54:31;;;;;;;10.87;8.40;;;6.50;99.90;;;;;;4932748;28;47211;-75
2023/04/02 03:56:58;;;;;;;14.97;9.97;;;6.50;99.90;;;;;;4915289;29;36551;-75
2023/04/02 03:59:33;;;;;;;11.73;8.97;;;6.50;99.90;;;;;;4928950;28;38857;-75
2023/04/02 04:02:18;;;;;;;13.17;9.27;;;6.50;99.90;;;;;;4910569;29;38702;-76
2023/04/02 04:04:47;;;;;;;9.93;8.10;;;6.50;99.90;;;;;;4914979;28;47004;-76
2023/04/02 04:07:43;;;;;;;15.00;8.97;;;6.50;99.90;;;;;;4933271;28;37928;-76
2023/04/02 04:10:17;;;;;;;16.23;9.83;;;6.50;99.90;;;;;;4907873;29;37441;-76
2023/04/02 04:12:47;;;;;;;13.23;8.83;;;6.50;99.90;;;;;;4902967;29;37776;-76
2023/04/02 04:15:16;;;;;;;13.67;9.13;;;6.50;99.90;;;;;;4925623;28;35778;-76
2023/04/02 04:17:56;;;;;;;14.00;9.00;;;6.50;99.90;;;;;;4926388;28;36736;-76
2023/04/02 04:20:24;;;;;;;14.53;8.03;;;6.50;99.90;;;;;;4913319;28;37894;-76
2023/04/02 04:22:54;;;;;;;13.40;8.10;;;6.40;99.90;;;;;;4910722;29;37514;-75
2023/04/02 04:25:29;;;;;;;12.87;8.40;;;6.30;99.90;;;;;;4913586;29;37208;-75
2023/04/02 04:28:15;;;;;;;12.17;8.20;;;6.30;99.90;;;;;;4907368;29;36548;-76
2023/04/02 04:31:02;;;;;;;13.83;8.17;;;6.20;99.90;;;;;;4933647;28;48325;-75
2023/04/02 04:33:39;;;;;;;15.17;9.00;;;6.20;99.90;;;;;;4898961;28;47207;-75
2023/04/02 04:36:20;;;;;;;12.20;8.47;;;6.20;99.90;;;;;;4924243;28;39091;-75
2023/04/02 04:38:54;;;;;;;14.73;8.80;;;6.20;99.90;;;;;;4930971;28;38377;-75
2023/04/02 04:41:25;;;;;;;13.13;9.10;;;6.20;99.90;;;;;;4932882;28;39574;-75
2023/04/02 04:43:58;;;;;;;10.00;7.73;;;6.20;99.90;;;;;;4933297;28;38921;-76
2023/04/02 04:46:31;;;;;;;14.17;8.97;;;6.20;99.90;;;;;;4938815;28;37810;-77
2023/04/02 04:49:13;;;;;;;13.13;9.37;;;6.20;99.90;;;;;;4932909;28;36250;-75
2023/04/02 04:51:59;;;;;;;16.37;9.37;;;6.20;99.90;;;;;;4927976;28;46993;-75
2023/04/02 04:54:27;;;;;;;16.70;10.33;;;6.20;99.90;;;;;;4911472;28;37426;-75
2023/04/02 04:57:04;;;;;;;11.47;9.13;;;6.10;99.90;;;;;;4928584;28;38081;-76
2023/04/02 04:59:35;;;;;;;14.60;9.57;;;6.20;99.90;;;;;;4922429;28;48629;-76
2023/04/02 05:02:17;;;;;;;19.13;10.43;;;6.20;99.90;;;;;;4916531;28;38676;-75
2023/04/02 05:04:48;;;;;;;12.00;8.97;;;6.20;99.90;;;;;;4921930;28;47082;-75
2023/04/02 05:07:25;;;;;;;13.00;9.63;;;6.20;99.90;;;;;;4934489;28;39632;-75
2023/04/02 05:10:16;;;;;;;12.60;9.03;;;6.20;99.90;;;;;;4912887;29;36273;-76
2023/04/02 05:13:10;;;;;;;15.80;9.23;;;6.10;99.90;;;;;;4913127;28;48024;-75
2023/04/02 05:16:08;;;;;;;12.30;9.17;;;6.10;99.90;;;;;;4925798;28;48354;-75
2023/04/02 05:18:47;;;;;;;12.10;9.33;;;6.00;99.90;;;;;;4915054;28;48624;-75
2023/04/02 05:21:25;;;;;;;12.50;8.37;;;6.00;99.90;;;;;;4931046;28;36224;-76
2023/04/02 05:24:03;;;;;;;10.50;8.30;;;6.00;99.90;;;;;;4922716;28;38675;-76
2023/04/02 05:26:50;;;;;;;10.80;7.87;;;6.00;99.90;;;;;;4903481;29;47154;-75
2023/04/02 05:29:34;;;;;;;14.43;8.93;;;5.80;99.90;;;;;;4927586;28;38512;-75
2023/04/02 05:32:12;;;;;;;14.20;8.43;;;5.70;99.90;;;;;;4915017;28;36277;-75
2023/04/02 05:34:40;;;;;;;10.40;8.40;;;5.60;99.90;;;;;;4917873;29;47434;-75
2023/04/02 05:37:17;;;;;;;12.07;8.33;;;5.70;99.90;;;;;;4928530;28;37586;-75
2023/04/02 05:39:51;;;;;;;13.90;8.83;;;5.70;99.90;;;;;;4944511;28;37948;-75
2023/04/02 05:42:30;;;;;;;14.67;9.10;;;5.70;99.90;;;;;;4933473;28;37159;-75
2023/04/02 05:45:13;;;;;;;13.87;8.50;;;5.80;99.90;;;;;;4918929;28;40061;-75
2023/04/02 05:47:42;;;;;;;;;;;5.80;99.90;;;;;;4926905;28;47215;-75
2023/04/02 05:50:08;;;;;;;12.47;8.67;;;5.80;99.90;;;;;;4937337;28;36761;-75
2023/04/02 05:52:41;;;;;;;11.47;7.73;;;5.80;99.90;;;;;;4924745;28;37195;-76
2023/04/02 05:55:10;;;;;;;;;;;5.80;99.90;;;;;;4914648;28;37812;-76
2023/04/02 05:57:50;;;;;;;9.70;7.03;;;5.70;99.90;;;;;;4941331;28;39548;-75
2023/04/02 06:00:39;;;;;;;10.03;7.00;;;5.60;99.90;;;;;;4909130;29;38028;-75
2023/04/02 06:03:36;;;;;;;10.17;6.77;;;5.60;99.90;;;;;;4883393;29;36073;-77
2023/04/02 06:06:12;;;;;;;9.23;6.60;;;5.50;99.90;;;;;;4906842;29;39252;-77
2023/04/02 06:08:46;;;;;;;9.67;6.50;;;5.50;99.90;;;;;;4914060;29;37358;-77
2023/04/02 06:11:19;;;;;;;11.30;6.03;;;5.50;99.90;;;;;;4934430;28;39036;-77
2023/04/02 06:13:45;;;;;;;;;;;5.50;99.90;;;;;;4927122;28;37304;-78
2023/04/02 06:16:14;;;;;;;10.27;7.17;;;5.50;99.90;;;;;;4929047;28;40245;-77
2023/04/02 06:18:41;;;;;;;10.97;6.40;;;5.50;99.90;;;;;;4934856;28;37461;-77
2023/04/02 06:21:11;;;;;;;8.50;6.03;;;5.50;99.90;;;;;;4914515;29;36977;-77
2023/04/02 06:23:49;;;;;;;11.93;6.93;;;5.50;99.90;;;;;;4927628;28;37325;-78
2023/04/02 06:26:21;;;;;;;11.23;6.23;;;5.50;99.90;;;;;;4928543;28;42091;-76
2023/04/02 06:29:19;;;;;;;10.98;6.20;;;5.50;99.90;;;;;;4918007;28;37409;-77
2023/04/02 06:31:58;;;;;;;10.80;6.53;;;5.50;99.90;;;;;;4928582;28;48567;-77
2023/04/02 06:34:27;;;;;;;10.67;6.87;;;5.50;99.90;;;;;;4904250;29;36279;-77
2023/04/02 06:37:17;;;;;;;9.17;6.20;;;5.50;99.90;;;;;;4924251;28;38840;-76
2023/04/02 06:39:43;;;;;;;10.50;6.70;;;5.50;99.90;;;;;;4920533;28;49207;-74
2023/04/02 06:42:45;;;;;;;10.40;5.67;;;5.40;99.90;;;;;;4922972;28;38236;-74
2023/04/02 06:45:30;;;;;;;8.30;6.27;;;5.40;99.90;;;;;;4856126;29;36164;-74
2023/04/02 06:48:00;;;;;;;10.23;6.10;;;5.30;99.90;;;;;;4915199;28;37530;-74
2023/04/02 06:50:55;;;;;;;11.67;6.93;;;5.30;99.90;;;;;;4942756;28;39400;-74
2023/04/02 06:53:42;;;;;;;10.33;6.40;;;5.30;99.90;;;;;;4924401;28;37982;-75
2023/04/02 06:56:35;;;;;;;10.73;6.23;;;5.20;99.90;;;;;;4915695;28;36276;-75
2023/04/02 06:59:03;;;;;;;11.30;5.40;;;5.10;99.90;;;;;;4931677;28;39383;-75
2023/04/02 07:01:51;;;;;;;14.10;6.03;;;5.10;99.90;;;;;;4916325;28;47413;-74
2023/04/02 07:04:19;;;;;;;8.17;5.73;;;5.20;99.90;;;;;;4933529;28;37713;-75
2023/04/02 07:06:45;;;;;;;8.87;4.80;;;5.30;99.90;;;;;;4932448;28;36160;-75
2023/04/02 07:09:13;;;;;;;8.80;5.20;;;5.30;99.90;;;;;;4940612;28;20057;-74
2023/04/02 07:11:39;;;;;;;9.50;5.67;;;5.20;99.90;;;;;;4929168;28;37276;-74
2023/04/02 07:14:05;;;;;;;7.30;4.63;;;5.20;99.90;;;;;;4917586;29;38371;-74
2023/04/02 07:16:33;;;;;;;17.60;5.73;;;5.30;99.90;;;;;;4933202;28;36263;-76
2023/04/02 07:18:59;;;;;;;7.83;4.70;;;5.40;99.90;;;;;;4929335;28;37659;-75
2023/04/02 07:21:26;;;;;;;6.57;4.47;;;5.30;99.90;;;;;;4926705;28;39206;-75
2023/04/02 07:23:53;;;;;;;10.17;4.77;;;5.30;99.90;;;;;;4918025;28;37233;-74
2023/04/02 07:26:26;;;;;;;8.10;4.37;;;5.30;99.90;;;;;;4930158;28;36848;-74
2023/04/02 07:28:53;;;;;;;13.48;4.75;;;5.20;99.90;;;;;;4919434;28;39337;-75
2023/04/02 07:31:23;;;;;;;12.73;4.53;;;5.20;99.90;;;;;;4925146;28;36671;-74
2023/04/02 07:33:50;;;;;;;9.40;4.47;;;5.20;99.90;;;;;;4922170;28;38980;-75
2023/04/02 07:36:19;;;;;;;8.40;5.03;;;5.30;99.90;;;;;;4935926;28;38644;-76
2023/04/02 07:38:45;;;;;;;9.20;4.67;;;5.30;99.90;;;;;;4932329;28;39526;-75
2023/04/02 07:41:14;;;;;;;7.30;4.10;;;5.30;99.90;;;;;;4912667;28;39732;-74
2023/04/02 07:43:42;;;;;;;6.70;4.47;;;5.20;99.90;;;;;;4918796;28;38148;-75
2023/04/02 07:46:10;;;;;;;7.73;4.07;;;5.10;99.90;;;;;;4905791;29;36416;-75
2023/04/02 07:48:36;;;;;;;7.77;3.97;;;5.00;99.90;;;;;;4907938;28;37757;-76
2023/04/02 07:51:02;;;;;;;8.50;4.13;;;5.10;99.90;;;;;;4905521;29;37602;-75
2023/04/02 07:53:37;;;;;;;7.50;4.13;;;5.00;99.90;;;;;;4935844;28;38765;-74
2023/04/02 07:56:04;;;;;;;6.10;3.90;;;5.00;99.90;;;;;;4932546;28;36944;-74
2023/04/02 07:58:31;;;;;;;7.97;3.60;;;5.20;99.90;;;;;;4939493;28;38674;-74
2023/04/02 08:00:59;;;;;;;9.20;3.97;;;5.30;99.90;;;;;;4916967;29;37302;-75
2023/04/02 08:03:26;;;;;;;5.73;4.10;;;5.30;99.90;;;;;;4939124;28;38376;-75
2023/04/02 08:05:57;;;;;;;5.87;3.93;;;5.20;99.90;;;;;;4931600;28;36463;-75
2023/04/02 08:08:24;;;;;;;7.23;4.03;;;5.30;99.90;;;;;;4914845;29;39325;-75
2023/04/02 08:10:50;;;;;;;7.27;3.67;;;5.40;99.90;;;;;;4935593;28;38120;-76
2023/04/02 08:13:19;;;;;;;5.10;3.47;;;5.10;99.90;;;;;;4909113;28;38276;-75
2023/04/02 08:15:45;;;;;;;7.17;3.70;;;5.30;99.90;;;;;;4918789;29;36519;-75
2023/04/02 08:18:11;;;;;;;7.73;4.10;;;5.40;99.90;;;;;;4923443;29;37757;-75
2023/04/02 08:20:38;;;;;;;6.00;3.73;;;5.40;99.90;;;;;;4933452;28;38577;-75
2023/04/02 08:23:05;;;;;;;7.20;4.33;;;5.60;99.90;;;;;;4908686;29;37053;-74
2023/04/02 08:25:31;;;;;;;4.97;4.10;;;5.70;99.90;;;;;;4936422;28;36280;-75
2023/04/02 08:28:00;;;;;;;7.67;3.77;;;5.90;99.90;;;;;;4927724;28;39199;-74
2023/04/02 08:30:26;;;;;;;8.03;4.07;;;5.60;99.90;;;;;;4928400;28;37469;-75
2023/04/02 08:32:52;;;;;;;6.97;4.07;;;5.60;99.90;;;;;;4925751;28;38202;-75
2023/04/02 08:35:18;;;;;;;7.57;3.70;;;5.60;99.90;;;;;;4903962;28;36015;-75
2023/04/02 08:37:44;;;;;;;8.17;3.43;;;5.50;99.90;;;;;;4926728;28;40232;-76
2023/04/02 08:40:21;;;;;;;5.63;3.27;;;5.60;99.90;;;;;;4914002;29;38030;-75
2023/04/02 08:43:02;;;;;;;7.90;3.50;;;5.80;99.90;;;;;;4930217;28;38501;-74
2023/04/02 08:46:01;;;;;;;4.57;3.20;;;5.80;99.90;;;;;;4911629;29;48688;-75
2023/04/02 08:48:31;;;;;;;5.77;3.33;;;6.00;99.90;;;;;;4898284;29;46726;-75
2023/04/02 08:50:59;;;;;;;4.07;2.90;;;6.00;99.90;;;;;;4927801;28;38436;-76
2023/04/02 08:53:30;;;;;;;5.73;3.17;;;6.00;99.90;;;;;;4905876;29;37107;-75
2023/04/02 08:56:16;;;;;;;7.23;3.43;;;6.00;99.90;;;;;;4932224;28;37576;-76
2023/04/02 08:58:48;;;;;;;6.13;2.70;;;6.00;99.90;;;;;;4910524;29;47101;-74
2023/04/02 09:01:30;;;;;;;3.07;2.30;;;6.00;99.90;;;;;;4930238;28;39128;-75
2023/04/02 09:03:57;;;;;;;4.88;2.42;;;6.10;99.90;;;;;;4908660;28;37219;-75
2023/04/02 09:06:26;;;;;;;6.07;2.50;;;6.00;99.90;;;;;;4908988;29;37879;-75
2023/04/02 09:08:54;;;;;;;4.47;2.47;;;5.90;99.90;;;;;;4921571;28;37673;-75
2023/04/02 09:11:20;;;;;;;6.80;2.97;;;5.60;99.90;;;;;;4915744;29;39082;-75
2023/04/02 09:13:51;;;;;;;6.20;2.80;;;5.50;99.90;;;;;;4929452;28;38986;-75
2023/04/02 09:16:22;;;;;;;5.37;2.47;;;5.50;99.90;;;;;;4918513;28;37588;-75
2023/04/02 09:18:51;;;;;;;3.67;2.57;;;5.60;99.90;;;;;;4930464;28;39770;-75
2023/04/02 09:21:30;;;;;;;4.07;2.80;;;5.80;99.90;;;;;;4923078;28;39156;-75
2023/04/02 09:23:56;;;;;;;7.10;2.80;;;5.80;99.90;;;;;;4930749;28;39116;-75
2023/04/02 09:26:28;;;;;;;4.23;2.50;;;5.80;99.90;;;;;;4913766;28;35975;-75
2023/04/02 09:29:29;;;;;;;5.20;2.57;;;5.70;99.90;;;;;;4921841;29;38660;-75
2023/04/02 09:32:36;;;;;;;8.27;4.40;;;5.50;99.90;;;;;;4910833;28;47646;-75
2023/04/02 09:35:15;;;;;;;9.33;5.83;;;5.60;99.90;;;;;;4911934;28;47375;-75
2023/04/02 09:37:43;;;;;;;9.27;5.17;;;5.40;99.90;;;;;;4877329;29;47096;-75
2023/04/02 09:40:31;;;;;;;8.30;3.10;;;5.60;99.90;;;;;;4925071;28;39858;-75
2023/04/02 09:43:11;;;;;;;4.27;2.43;;;5.90;99.90;;;;;;4916312;28;37284;-76
2023/04/02 09:45:39;;;;;;;4.60;2.23;;;5.90;99.90;;;;;;4928488;28;48878;-75
2023/04/02 09:48:25;;;;;;;6.27;2.53;;;5.80;99.90;;;;;;4923718;28;38875;-75
2023/04/02 09:51:14;;;;;;;6.93;2.87;;;5.80;99.90;;;;;;4904066;29;37959;-76
2023/04/02 09:53:49;;;;;;;4.70;2.77;;;5.90;99.90;;;;;;4931128;28;48576;-75
2023/04/02 09:56:16;;;;;;;6.80;3.30;;;6.10;99.90;;;;;;4927640;28;36936;-75
2023/04/02 09:58:44;;;;;;;5.87;2.50;;;6.30;99.90;;;;;;4918836;28;37292;-75
2023/04/02 10:01:32;;;;;;;8.30;3.07;;;6.70;99.90;;;;;;4928805;28;38280;-75
2023/04/02 10:04:00;;;;;;;6.50;2.90;;;6.40;99.90;;;;;;4921795;28;39342;-76
2023/04/02 10:06:31;;;;;;;7.07;2.90;;;5.70;99.90;;;;;;4905440;29;46928;-75
2023/04/02 10:08:57;;;;;;;9.40;2.90;;;5.20;99.90;;;;;;4928779;28;37091;-76
2023/04/02 10:11:30;;;;;;;7.97;3.33;;;5.00;99.90;;;;;;4932411;28;39647;-76
2023/04/02 10:14:03;;;;;;;6.03;3.03;;;4.80;99.90;;;;;;4927228;28;37705;-73
2023/04/02 10:16:37;;;;;;;8.53;3.30;;;4.70;99.90;;;;;;4916327;29;47236;-74
2023/04/02 10:19:13;;;;;;;7.47;3.47;;;4.70;99.90;;;;;;4938002;28;37989;-73
2023/04/02 10:21:42;;;;;;;4.63;2.90;;;5.00;99.90;;;;;;4931288;28;39667;-74
2023/04/02 10:24:12;;;;;;;5.03;2.57;;;5.00;99.90;;;;;;4911627;28;38690;-74
2023/04/02 10:26:57;;;;;;;10.20;2.90;;;5.00;99.90;;;;;;4930589;28;36776;-75
2023/04/02 10:29:29;;;;;;;6.77;3.03;;;5.70;99.90;;;;;;4927786;28;38273;-75
2023/04/02 10:32:04;;;;;;;4.25;2.65;;;6.00;99.90;;;;;;4915863;29;39107;-74
2023/04/02 10:34:55;;;;;;;6.87;2.80;;;6.30;99.90;;;;;;4911228;28;47166;-75
2023/04/02 10:37:33;;;;;;;6.40;2.83;;;6.70;99.90;;;;;;4910841;29;36898;-75
2023/04/02 10:40:13;;;;;;;7.47;3.90;;;7.10;99.90;;;;;;4915391;28;36477;-75
2023/04/02 10:42:55;;;;;;;5.37;2.73;;;7.20;99.90;;;;;;4920731;28;48455;-75
2023/04/02 10:45:59;;;;;;;6.75;3.05;;;7.40;99.90;;;;;;4924955;28;38450;-75
2023/04/02 10:48:28;;;;;;;5.57;2.20;;;7.50;99.90;;;;;;4898520;29;37972;-76
2023/04/02 10:51:31;;;;;;;6.23;2.70;;;7.30;99.90;;;;;;4919411;28;38027;-75
2023/04/02 10:54:05;;;;;;;5.88;3.00;;;7.10;99.90;;;;;;4893954;28;47212;-75
2023/04/02 10:56:31;;;;;;;5.83;2.47;;;7.40;99.90;;;;;;4930360;28;48853;-75
2023/04/02 10:59:09;;;;;;;6.17;2.80;;;7.80;99.90;;;;;;4933453;28;38340;-78
2023/04/02 11:01:39;;;;;;;5.37;2.90;;;8.10;99.90;;;;;;4923927;28;46629;-77
2023/04/02 11:04:26;;;;;;;6.53;2.80;;;8.20;99.90;;;;;;4901106;28;38437;-77
2023/04/02 11:07:16;;;;;;;5.10;2.40;;;8.40;99.90;;;;;;4905478;28;37494;-78
2023/04/02 11:09:46;;;;;;;7.37;2.67;;;8.60;99.90;;;;;;4918766;28;47429;-78
2023/04/02 11:12:38;;;;;;;5.17;2.70;;;8.90;99.90;;;;;;4893732;29;38307;-77
2023/04/02 11:15:15;;;;;;;5.93;2.70;;;9.10;99.90;;;;;;4898083;29;38950;-75
2023/04/02 11:17:42;;;;;;;5.23;2.60;;;9.20;99.90;;;;;;4900542;29;47184;-76
2023/04/02 11:20:55;;;;;;;8.63;2.87;;;9.40;99.90;;;;;;4917623;28;36341;-76
2023/04/02 11:23:21;;;;;;;3.67;2.13;;;9.20;99.90;;;;;;4925156;28;37791;-75
2023/04/02 11:25:48;;;;;;;5.80;2.37;;;9.20;99.90;;;;;;4913467;28;37404;-75
2023/04/02 11:28:24;;;;;;;6.67;2.40;;;9.30;99.90;;;;;;4910912;29;37366;-76
2023/04/02 11:30:50;;;;;;;4.47;2.20;;;9.50;99.90;;;;;;4897007;29;38523;-75
2023/04/02 11:33:34;;;;;;;4.03;2.07;;;9.50;99.90;;;;;;4922340;28;38257;-76
2023/04/02 11:36:03;;;;;;;5.17;2.30;;;9.40;99.90;;;;;;4920411;28;38068;-78
2023/04/02 11:38:58;;;;;;;3.57;2.13;;;9.20;99.90;;;;;;4913131;29;47308;-75
2023/04/02 11:42:00;;;;;;;4.40;1.97;;;9.50;99.90;;;;;;4903817;28;39242;-75
2023/04/02 11:44:26;;;;;;;4.33;2.20;;;9.70;99.90;;;;;;4921790;28;47594;-75
2023/04/02 11:47:25;;;;;;;5.07;2.00;;;9.70;99.90;;;;;;4903182;28;37900;-75
2023/04/02 11:49:57;;;;;;;9.17;2.80;;;9.80;99.90;;;;;;4919823;28;47606;-75
2023/04/02 11:52:58;;;;;;;3.40;1.77;;;10.10;99.90;;;;;;4923768;28;38875;-75
2023/04/02 11:55:44;;;;;;;5.60;2.00;;;10.20;99.90;;;;;;4901998;28;37875;-76
2023/04/02 11:58:31;;;;;;;3.57;1.53;;;10.30;99.90;;;;;;4922123;28;38504;-75
2023/04/02 12:01:18;;;;;;;5.80;2.13;;;10.10;99.90;;;;;;4922727;28;39940;-74
2023/04/02 12:04:09;;;;;;;5.15;1.85;;;10.40;99.90;;;;;;4925402;28;49050;-75
2023/04/02 12:06:54;;;;;;;6.53;1.92;;;10.50;99.90;;;;;;4924042;28;48875;-74
2023/04/02 12:09:22;;;;;;;7.55;2.47;;;10.50;99.90;;;;;;4904115;28;38786;-75
2023/04/02 12:11:54;;;;;;;6.20;1.80;;;10.80;99.90;;;;;;4921598;28;39449;-75
2023/04/02 12:14:47;;;;;;;5.30;1.98;;;10.60;99.90;;;;;;4921534;28;37574;-75
2023/04/02 12:17:26;;;;;;;4.78;1.35;;;10.50;99.90;;;;;;4926655;28;36737;-75
2023/04/02 12:20:06;;;;;;;6.55;1.67;;;10.50;99.90;;;;;;4906521;28;38564;-75
2023/04/02 12:22:34;;;;;;;7.65;1.88;;;10.60;99.90;;;;;;4924184;28;47838;-75
2023/04/02 12:25:20;;;;;;;3.85;1.65;;;10.60;99.90;;;;;;4905251;28;36807;-75
2023/04/02 12:27:47;;;;;;;7.25;1.88;;;10.50;99.90;;;;;;4907651;28;46699;-75
2023/04/02 12:30:21;;;;;;;10.32;1.67;;;10.60;99.90;;;;;;4902911;28;39131;-75
2023/04/02 12:32:49;;;;;;;6.72;2.22;;;10.70;99.90;;;;;;4907342;28;38756;-75
2023/04/02 12:35:32;;;;;;;5.85;1.75;;;10.80;99.90;;;;;;4906758;28;37080;-75
2023/04/02 12:37:58;;;;;;;6.40;1.65;;;11.00;99.90;;;;;;4920391;28;36331;-75
2023/04/02 12:40:25;;;;;;;3.95;1.70;;;11.40;99.90;;;;;;4905438;28;37778;-75
2023/04/02 12:42:51;;;;;;;5.80;1.48;;;11.30;99.90;;;;;;4928706;28;39198;-75
2023/04/02 12:45:29;;;;;;;5.28;1.67;;;11.50;99.90;;;;;;4921509;28;36934;-75
2023/04/02 12:47:57;;;;;;;6.22;1.80;;;11.40;99.90;;;;;;4927933;28;37864;-75
2023/04/02 12:50:26;;;;;;;5.07;1.60;;;11.30;99.90;;;;;;4915700;28;39650;-75
2023/04/02 12:52:54;;;;;;;5.65;1.60;;;11.40;99.90;;;;;;4929013;28;38219;-76
2023/04/02 12:55:23;;;;;;;3.17;1.55;;;11.70;99.90;;;;;;4907477;28;36451;-75
2023/04/02 12:57:55;;;;;;;4.55;1.67;;;11.90;99.90;;;;;;4912747;28;36920;-75
2023/04/02 13:00:21;;;;;;;3.55;1.38;;;11.60;99.90;;;;;;4905645;28;38960;-75
2023/04/02 13:03:17;;;;;;;7.72;2.95;;;11.80;99.90;;;;;;4924406;28;49452;-74
2023/04/02 13:05:53;;;;;;;4.85;1.85;;;11.90;99.90;;;;;;4909345;28;46703;-75
2023/04/02 13:08:29;;;;;;;3.50;1.50;;;12.20;99.90;;;;;;4904705;28;36829;-76
2023/04/02 13:11:00;;;;;;;4.55;1.80;;;12.60;99.90;;;;;;4926035;28;38211;-75
2023/04/02 13:13:32;;;;;;;4.25;1.20;;;12.70;99.90;;;;;;4906109;28;37118;-75
2023/04/02 13:16:04;;;;;;;4.15;1.40;;;12.60;99.90;;;;;;4904057;28;36658;-75
2023/04/02 13:18:32;;;;;;;3.00;1.60;;;12.40;99.90;;;;;;4915979;28;47399;-75
2023/04/02 13:21:18;;;;;;;4.65;1.60;;;12.30;99.90;;;;;;4908967;28;37784;-75
2023/04/02 13:23:44;;;;;;;5.03;1.60;;;12.60;99.90;;;;;;4925871;28;48871;-75
2023/04/02 13:26:23;;;;;;;7.45;1.75;;;12.80;99.90;;;;;;4906408;28;38258;-75
2023/04/02 13:28:58;;;;;;;7.82;1.48;;;13.00;99.90;;;;;;4919833;28;38323;-76
2023/04/02 13:31:25;;;;;;;2.92;1.40;;;12.70;99.90;;;;;;4907220;28;38911;-74
2023/04/02 13:33:51;;;;;;;3.70;1.38;;;12.40;99.90;;;;;;4907232;28;37351;-75
2023/04/02 13:36:17;;;;;;;5.50;1.70;;;12.40;99.90;;;;;;4906745;28;36677;-75